createdAt,value
2023-03-19T00:02:21.383Z,12.00
2023-03-19T00:04:48.974Z,10.00
2023-03-19T00:07:16.411Z,9.93
2023-03-19T00:09:43.980Z,11.40
2023-03-19T00:12:45.950Z,10.63
2023-03-19T00:15:33.289Z,8.23
2023-03-19T00:18:00.764Z,10.57
2023-03-19T00:20:28.035Z,11.90
2023-03-19T00:22:55.306Z,11.90
2023-03-19T00:25:22.530Z,10.53
2023-03-19T00:27:49.763Z,11.57
2023-03-19T00:30:22.879Z,10.53
2023-03-19T00:32:51.560Z,10.40
2023-03-19T00:35:18.966Z,9.70
2023-03-19T00:37:46.155Z,9.03
2023-03-19T00:43:46.931Z,8.33
2023-03-19T00:46:36.106Z,10.10
2023-03-19T00:49:04.840Z,9.57
2023-03-19T00:51:32.152Z,10.87
2023-03-19T00:53:59.454Z,8.50
2023-03-19T00:56:26.902Z,10.40
2023-03-19T00:58:54.163Z,11.20
2023-03-19T01:01:21.686Z,9.37
2023-03-19T01:03:49.744Z,11.37
2023-03-19T01:06:18.329Z,9.73
2023-03-19T01:08:45.566Z,8.17
2023-03-19T01:11:13.835Z,12.13
2023-03-19T01:13:41.282Z,11.93
2023-03-19T01:19:57.981Z,12.23
2023-03-19T01:22:26.675Z,15.47
2023-03-19T01:24:57.880Z,13.07
2023-03-19T01:27:25.776Z,13.20
2023-03-19T01:29:53.236Z,12.90
2023-03-19T01:32:40.599Z,14.10
2023-03-19T01:35:35.955Z,12.47
2023-03-19T01:38:05.130Z,13.07
2023-03-19T01:40:32.798Z,10.20
2023-03-19T01:43:13.424Z,13.20
2023-03-19T01:46:09.861Z,10.93
2023-03-19T01:48:59.436Z,10.87
2023-03-19T01:51:28.999Z,11.97
2023-03-19T01:54:23.341Z,11.57
2023-03-19T01:56:58.420Z,11.57
2023-03-19T01:59:55.489Z,13.37
2023-03-19T02:02:41.795Z,10.70
2023-03-19T02:05:20.250Z,11.03
2023-03-19T02:07:47.904Z,11.50
2023-03-19T02:10:17.619Z,12.30
2023-03-19T02:12:45.042Z,11.40
2023-03-19T02:15:40.566Z,11.97
2023-03-19T02:18:20.608Z,13.90
2023-03-19T02:20:51.933Z,11.13
2023-03-19T02:23:26.081Z,10.53
2023-03-19T02:26:03.486Z,11.60
2023-03-19T02:28:31.209Z,8.57
2023-03-19T02:30:58.448Z,12.77
2023-03-19T02:36:17.288Z,14.03
2023-03-19T02:38:45.871Z,15.33
2023-03-19T02:41:14.997Z,14.07
2023-03-19T02:47:46.721Z,13.50
2023-03-19T02:50:13.952Z,13.43
2023-03-19T02:52:41.231Z,14.97
2023-03-19T02:55:08.986Z,13.07
2023-03-19T02:57:37.672Z,13.87
2023-03-19T03:00:05.330Z,14.23
2023-03-19T03:02:32.573Z,14.17
2023-03-19T03:04:59.906Z,14.70
2023-03-19T03:07:27.245Z,17.97
2023-03-19T03:09:54.512Z,18.50
2023-03-19T03:12:21.870Z,22.87
2023-03-19T03:15:10.052Z,24.13
2023-03-19T03:17:57.457Z,24.33
2023-03-19T03:20:24.989Z,23.90
2023-03-19T03:22:53.371Z,26.23
2023-03-19T03:25:20.609Z,25.70
2023-03-19T03:27:47.973Z,22.50
2023-03-19T03:30:15.533Z,24.70
2023-03-19T03:32:49.032Z,25.83
2023-03-19T03:35:17.654Z,20.57
2023-03-19T03:37:44.870Z,20.97
2023-03-19T03:40:12.592Z,20.57
2023-03-19T03:42:45.029Z,19.77
2023-03-19T03:45:28.607Z,18.43
2023-03-19T03:48:08.099Z,22.13
2023-03-19T03:50:37.026Z,18.87
2023-03-19T03:53:08.433Z,20.03
2023-03-19T03:55:36.023Z,25.23
2023-03-19T03:58:03.350Z,21.43
2023-03-19T04:00:30.629Z,19.47
2023-03-19T04:02:58.271Z,24.60
2023-03-19T04:05:26.014Z,23.03
2023-03-19T04:07:55.369Z,25.37
2023-03-19T04:10:23.023Z,25.77
2023-03-19T04:12:55.819Z,29.67
2023-03-19T04:15:44.950Z,28.93
2023-03-19T04:18:25.922Z,30.43
2023-03-19T04:20:53.282Z,32.50
2023-03-19T04:23:22.054Z,28.63
2023-03-19T04:25:49.561Z,28.23
2023-03-19T04:28:17.242Z,30.33
2023-03-19T04:30:44.544Z,33.53
2023-03-19T04:36:04.387Z,32.90
2023-03-19T04:38:33.783Z,28.50
2023-03-19T04:41:01.337Z,25.33
2023-03-19T04:43:52.464Z,20.50
2023-03-19T04:49:35.911Z,26.83
2023-03-19T04:52:04.718Z,26.77
2023-03-19T04:54:33.506Z,32.17
2023-03-19T04:57:00.890Z,31.53
2023-03-19T04:59:33.865Z,26.00
2023-03-19T05:04:43.760Z,29.73
2023-03-19T05:07:14.229Z,35.00
2023-03-19T05:09:44.398Z,33.87
2023-03-19T05:12:15.540Z,35.40
2023-03-19T05:15:28.102Z,39.23
2023-03-19T05:18:19.838Z,35.33
2023-03-19T05:20:47.194Z,38.77
2023-03-19T05:23:20.408Z,40.70
2023-03-19T05:25:58.629Z,37.90
2023-03-19T05:28:45.898Z,43.33
2023-03-19T05:31:14.638Z,44.00
2023-03-19T05:33:46.414Z,44.23
2023-03-19T05:36:17.004Z,42.03
2023-03-19T05:38:55.667Z,43.83
2023-03-19T05:41:30.765Z,40.70
2023-03-19T05:44:02.798Z,44.37
2023-03-19T05:46:59.319Z,47.40
2023-03-19T05:49:30.426Z,54.93
2023-03-19T05:52:07.309Z,46.63
2023-03-19T05:54:34.828Z,42.30
2023-03-19T05:57:15.098Z,49.70
2023-03-19T05:59:48.358Z,44.10
2023-03-19T06:02:34.098Z,44.57
2023-03-19T06:05:27.367Z,47.67
2023-03-19T06:07:59.012Z,50.83
2023-03-19T06:10:35.586Z,43.00
2023-03-19T06:13:07.217Z,57.90
2023-03-19T06:15:40.486Z,53.37
2023-03-19T06:18:31.189Z,56.57
2023-03-19T06:21:00.194Z,56.03
2023-03-19T06:23:27.562Z,54.30
2023-03-19T06:25:58.078Z,61.57
2023-03-19T06:28:31.332Z,52.47
2023-03-19T06:30:58.590Z,55.90
2023-03-19T06:33:44.371Z,56.77
2023-03-19T06:36:11.674Z,56.70
2023-03-19T06:38:39.601Z,54.07
2023-03-19T06:41:06.923Z,52.57
2023-03-19T06:43:35.599Z,42.60
2023-03-19T06:46:02.877Z,50.00
2023-03-19T06:48:30.439Z,50.47
2023-03-19T06:50:57.712Z,46.93
2023-03-19T06:53:25.140Z,48.63
2023-03-19T06:55:52.641Z,39.90
2023-03-19T06:58:20.239Z,42.67
2023-03-19T07:00:49.044Z,43.23
2023-03-19T07:03:16.462Z,40.70
2023-03-19T07:05:43.742Z,40.60
2023-03-19T07:08:11.057Z,42.67
2023-03-19T07:10:38.632Z,40.73
2023-03-19T07:13:06.110Z,42.37
2023-03-19T07:15:33.550Z,42.83
2023-03-19T07:18:02.477Z,35.00
2023-03-19T07:20:29.787Z,37.57
2023-03-19T07:22:57.048Z,37.57
2023-03-19T07:25:24.552Z,34.57
2023-03-19T07:27:54.186Z,35.50
2023-03-19T07:30:22.954Z,37.70
2023-03-19T07:32:50.330Z,36.63
2023-03-19T07:35:19.114Z,38.60
2023-03-19T07:37:46.321Z,43.27
2023-03-19T07:40:13.920Z,38.73
2023-03-19T07:42:42.823Z,41.60
2023-03-19T07:45:12.025Z,36.30
2023-03-19T07:47:39.347Z,39.50
2023-03-19T07:50:07.487Z,42.20
2023-03-19T07:52:36.389Z,40.23
2023-03-19T07:55:04.442Z,41.10
2023-03-19T07:57:35.337Z,43.03
2023-03-19T08:00:02.868Z,41.00
2023-03-19T08:02:40.285Z,43.57
2023-03-19T08:05:07.808Z,40.13
2023-03-19T08:07:36.635Z,46.50
2023-03-19T08:10:04.705Z,55.17
2023-03-19T08:12:32.122Z,51.63
2023-03-19T08:14:59.581Z,49.90
2023-03-19T08:17:26.847Z,48.00
2023-03-19T08:19:54.239Z,51.93
2023-03-19T08:22:21.865Z,49.83
2023-03-19T08:24:50.392Z,49.27
2023-03-19T08:27:17.742Z,50.53
2023-03-19T08:29:44.974Z,55.47
2023-03-19T08:32:12.468Z,57.67
2023-03-19T08:34:39.698Z,51.43
2023-03-19T08:37:07.018Z,42.53
2023-03-19T08:39:34.329Z,53.43
2023-03-19T08:42:03.047Z,48.83
2023-03-19T08:44:30.267Z,46.87
2023-03-19T08:46:57.529Z,51.33
2023-03-19T08:49:24.959Z,53.20
2023-03-19T08:51:52.377Z,48.93
2023-03-19T08:54:22.191Z,44.30
2023-03-19T08:56:50.369Z,43.87
2023-03-19T08:59:18.930Z,41.03
2023-03-19T09:01:46.214Z,44.07
2023-03-19T09:04:13.561Z,48.83
2023-03-19T09:06:40.796Z,47.70
2023-03-19T09:09:08.022Z,42.03
2023-03-19T09:11:35.342Z,43.63
2023-03-19T09:14:02.580Z,37.73
2023-03-19T09:16:31.396Z,38.67
2023-03-19T09:18:59.466Z,34.50
2023-03-19T09:21:26.787Z,44.53
2023-03-19T09:23:54.024Z,42.93
2023-03-19T09:26:21.286Z,43.30
2023-03-19T09:28:48.542Z,38.07
2023-03-19T09:31:15.799Z,38.73
2023-03-19T09:33:44.407Z,36.20
2023-03-19T09:36:11.624Z,41.53
2023-03-19T09:38:38.921Z,37.90
2023-03-19T09:41:09.720Z,43.77
2023-03-19T09:43:45.170Z,45.30
2023-03-19T09:46:14.705Z,33.00
2023-03-19T09:48:47.150Z,42.17
2023-03-19T09:51:18.544Z,35.47
2023-03-19T09:53:48.470Z,39.10
2023-03-19T09:56:16.556Z,32.93
2023-03-19T09:58:44.543Z,33.37
2023-03-19T10:01:21.459Z,40.03
2023-03-19T10:03:54.132Z,35.00
2023-03-19T10:06:26.246Z,26.70
2023-03-19T10:09:01.227Z,36.30
2023-03-19T10:11:38.100Z,38.30
2023-03-19T10:14:11.816Z,37.17
2023-03-19T10:19:18.691Z,38.97
2023-03-19T10:21:50.905Z,32.83
2023-03-19T10:24:22.235Z,44.00
2023-03-19T10:26:50.614Z,46.27
2023-03-19T10:29:19.549Z,42.10
2023-03-19T10:32:08.865Z,45.57
2023-03-19T10:37:44.123Z,46.93
2023-03-19T10:40:19.054Z,47.13
2023-03-19T10:42:51.063Z,36.50
2023-03-19T10:45:24.143Z,38.23
2023-03-19T10:47:52.874Z,34.23
2023-03-19T10:50:21.228Z,35.87
2023-03-19T10:53:03.948Z,40.70
2023-03-19T10:55:31.775Z,34.40
2023-03-19T10:58:03.627Z,41.07
2023-03-19T11:00:31.913Z,41.93
2023-03-19T11:03:18.232Z,41.73
2023-03-19T11:06:04.831Z,43.73
2023-03-19T11:08:36.075Z,41.00
2023-03-19T11:11:03.537Z,39.93
2023-03-19T11:13:30.935Z,35.23
2023-03-19T11:15:59.833Z,23.77
2023-03-19T11:18:29.073Z,24.57
2023-03-19T11:20:57.906Z,23.77
2023-03-19T11:23:28.244Z,28.93
2023-03-19T11:26:00.378Z,26.83
2023-03-19T11:28:28.362Z,32.10
2023-03-19T11:31:03.215Z,30.40
2023-03-19T11:33:54.305Z,26.17
2023-03-19T11:36:29.728Z,30.33
2023-03-19T11:39:02.431Z,32.43
2023-03-19T11:41:36.813Z,27.03
2023-03-19T11:44:06.117Z,27.27
2023-03-19T11:46:36.965Z,21.63
2023-03-19T11:49:12.653Z,24.17
2023-03-19T11:51:48.145Z,19.63
2023-03-19T11:54:21.992Z,20.37
2023-03-19T11:56:52.133Z,20.30
2023-03-19T11:59:27.125Z,23.27
2023-03-19T12:02:22.361Z,28.03
2023-03-19T12:05:06.703Z,30.77
2023-03-19T12:07:35.394Z,36.57
2023-03-19T12:10:07.997Z,41.03
2023-03-19T12:12:42.186Z,32.93
2023-03-19T12:15:14.824Z,43.07
2023-03-19T12:17:46.948Z,42.57
2023-03-19T12:20:34.324Z,37.57
2023-03-19T12:23:06.187Z,37.17
2023-03-19T12:25:42.537Z,38.30
2023-03-19T12:28:15.254Z,34.43
2023-03-19T12:31:14.674Z,33.30
2023-03-19T12:34:04.767Z,27.53
2023-03-19T12:36:33.770Z,28.13
2023-03-19T12:39:03.337Z,28.17
2023-03-19T12:41:31.387Z,23.50
2023-03-19T12:44:01.610Z,28.53
2023-03-19T12:46:36.090Z,31.37
2023-03-19T12:49:06.084Z,31.27
2023-03-19T12:51:36.002Z,25.67
2023-03-19T12:54:05.653Z,23.07
2023-03-19T12:56:35.018Z,22.90
2023-03-19T12:59:08.811Z,19.07
2023-03-19T13:01:38.122Z,22.73
2023-03-19T13:07:00.409Z,19.40
2023-03-19T13:09:29.351Z,18.70
2023-03-19T13:11:59.384Z,23.20
2023-03-19T13:14:32.368Z,18.57
2023-03-19T13:17:02.327Z,18.87
2023-03-19T13:19:35.107Z,14.17
2023-03-19T13:22:36.887Z,18.13
2023-03-19T13:25:23.647Z,16.50
2023-03-19T13:27:53.406Z,22.27
2023-03-19T13:30:23.234Z,32.50
2023-03-19T13:32:51.719Z,28.03
2023-03-19T13:35:25.871Z,29.30
2023-03-19T13:37:57.034Z,25.03
2023-03-19T13:40:39.150Z,24.37
2023-03-19T13:43:28.022Z,25.87
2023-03-19T13:46:04.766Z,19.67
2023-03-19T13:48:38.650Z,25.37
2023-03-19T13:51:22.166Z,21.73
2023-03-19T13:54:15.551Z,27.43
2023-03-19T13:57:13.093Z,20.87
2023-03-19T13:59:41.018Z,18.07
2023-03-19T14:02:23.224Z,22.63
2023-03-19T14:08:20.730Z,15.13
2023-03-19T14:10:50.175Z,12.90
2023-03-19T14:13:21.830Z,11.30
2023-03-19T14:15:49.889Z,14.13
2023-03-19T14:18:18.672Z,12.90
2023-03-19T14:20:48.419Z,13.20
2023-03-19T14:26:11.182Z,10.73
2023-03-19T14:28:42.400Z,12.77
2023-03-19T14:31:19.012Z,9.70
2023-03-19T14:34:03.847Z,11.10
2023-03-19T14:36:53.263Z,10.70
2023-03-19T14:39:28.969Z,9.73
2023-03-19T14:42:01.383Z,12.37
2023-03-19T14:44:55.807Z,12.03
2023-03-19T14:47:30.410Z,18.83
2023-03-19T14:50:30.936Z,13.23
2023-03-19T14:55:40.426Z,15.43
2023-03-19T14:58:10.606Z,20.37
2023-03-19T15:00:40.699Z,20.00
2023-03-19T15:09:46.610Z,12.83
2023-03-19T15:12:39.825Z,11.27
2023-03-19T15:15:17.449Z,14.87
2023-03-19T15:17:51.568Z,14.90
2023-03-19T15:20:24.931Z,8.83
2023-03-19T15:22:55.621Z,11.63
2023-03-19T15:25:23.103Z,15.17
2023-03-19T15:28:05.616Z,15.17
2023-03-19T15:30:46.761Z,12.13
2023-03-19T15:33:36.889Z,12.23
2023-03-19T15:36:09.040Z,16.77
2023-03-19T15:38:37.356Z,12.20
2023-03-19T15:41:05.780Z,13.77
2023-03-19T15:43:34.346Z,17.37
2023-03-19T15:46:03.231Z,21.30
2023-03-19T15:48:37.121Z,15.53
2023-03-19T15:51:05.275Z,21.30
2023-03-19T15:53:33.851Z,25.50
2023-03-19T15:56:02.654Z,21.60
2023-03-19T15:58:31.372Z,14.77
2023-03-19T16:01:00.204Z,17.70
2023-03-19T16:03:30.532Z,18.13
2023-03-19T16:06:01.982Z,19.53
2023-03-19T16:08:30.214Z,24.13
2023-03-19T16:11:12.345Z,22.07
2023-03-19T16:13:40.287Z,22.63
2023-03-19T16:16:08.256Z,24.67
2023-03-19T16:18:44.135Z,20.40
2023-03-19T16:21:14.804Z,24.63
2023-03-19T16:24:01.023Z,26.00
2023-03-19T16:26:32.260Z,20.23
2023-03-19T16:29:00.633Z,20.80
2023-03-19T16:31:29.975Z,19.17
2023-03-19T16:34:32.491Z,23.47
2023-03-19T16:37:18.420Z,23.47
2023-03-19T16:39:54.267Z,19.03
2023-03-19T16:42:29.092Z,15.67
2023-03-19T16:44:56.550Z,20.13
2023-03-19T16:47:24.045Z,19.20
2023-03-19T16:49:51.388Z,12.07
2023-03-19T16:55:17.489Z,21.03
2023-03-19T16:57:45.084Z,17.03
2023-03-19T17:00:13.691Z,15.03
2023-03-19T17:03:02.390Z,14.17
2023-03-19T17:08:30.784Z,16.23
2023-03-19T17:10:59.740Z,8.20
2023-03-19T17:13:28.295Z,13.40
2023-03-19T17:15:56.413Z,14.27
2023-03-19T17:18:24.255Z,12.23
2023-03-19T17:20:52.854Z,13.03
2023-03-19T17:23:20.829Z,8.87
2023-03-19T17:25:48.191Z,10.07
2023-03-19T17:28:16.788Z,12.97
2023-03-19T17:30:44.056Z,9.23
2023-03-19T17:33:20.935Z,11.80
2023-03-19T17:35:48.366Z,7.63
2023-03-19T17:38:17.669Z,10.07
2023-03-19T17:40:45.593Z,7.03
2023-03-19T17:43:13.356Z,7.27
2023-03-19T17:45:43.606Z,10.23
2023-03-19T17:48:17.371Z,12.10
2023-03-19T17:50:45.090Z,10.77
2023-03-19T17:53:12.932Z,11.03
2023-03-19T17:55:40.148Z,13.20
2023-03-19T17:58:07.391Z,17.80
2023-03-19T18:00:34.835Z,10.80
2023-03-19T18:03:03.761Z,11.00
2023-03-19T18:05:31.028Z,11.43
2023-03-19T18:07:58.327Z,6.97
2023-03-19T18:10:27.038Z,11.07
2023-03-19T18:12:54.680Z,10.40
2023-03-19T18:15:22.969Z,9.80
2023-03-19T18:17:51.553Z,10.90
2023-03-19T18:20:22.239Z,6.43
2023-03-19T18:22:49.582Z,5.17
2023-03-19T18:25:18.030Z,6.07
2023-03-19T18:27:45.240Z,7.60
2023-03-19T18:30:13.463Z,6.70
2023-03-19T18:32:41.471Z,6.70
2023-03-19T18:35:10.841Z,7.80
2023-03-19T18:37:39.418Z,7.67
2023-03-19T18:40:07.150Z,7.60
2023-03-19T18:42:34.352Z,8.50
2023-03-19T18:45:01.618Z,7.43
2023-03-19T18:47:28.896Z,5.30
2023-03-19T18:49:56.156Z,11.43
2023-03-19T18:52:23.400Z,9.20
2023-03-19T18:54:52.075Z,7.83
2023-03-19T18:57:19.338Z,7.67
2023-03-19T18:59:46.745Z,11.83
2023-03-19T19:02:20.473Z,9.17
2023-03-19T19:04:48.231Z,5.60
2023-03-19T19:07:15.826Z,10.47
2023-03-19T19:09:43.108Z,7.27
2023-03-19T19:12:13.857Z,11.80
2023-03-19T19:14:41.326Z,5.83
2023-03-19T19:17:10.849Z,14.30
2023-03-19T19:19:38.087Z,11.00
2023-03-19T19:22:05.368Z,11.13
2023-03-19T19:24:32.681Z,11.03
2023-03-19T19:26:59.918Z,8.97
2023-03-19T19:29:29.303Z,7.83
2023-03-19T19:31:56.583Z,7.50
2023-03-19T19:34:23.930Z,12.73
2023-03-19T19:36:51.330Z,15.47
2023-03-19T19:39:18.871Z,12.13
2023-03-19T19:41:46.217Z,12.40
2023-03-19T19:44:17.254Z,6.73
2023-03-19T19:46:45.934Z,9.33
2023-03-19T19:49:13.969Z,8.23
2023-03-19T19:51:41.407Z,8.80
2023-03-19T19:54:08.787Z,15.90
2023-03-19T19:56:36.706Z,12.37
2023-03-19T19:59:05.151Z,16.10
2023-03-19T20:01:32.416Z,10.87
2023-03-19T20:04:01.136Z,11.87
2023-03-19T20:09:17.431Z,13.27
2023-03-19T20:11:44.673Z,9.50
2023-03-19T20:14:14.305Z,12.67
2023-03-19T20:16:41.616Z,10.97
2023-03-19T20:19:17.266Z,14.03
2023-03-19T20:21:44.647Z,9.00
2023-03-19T20:24:35.952Z,10.30
2023-03-19T20:27:19.358Z,9.93
2023-03-19T20:29:46.797Z,9.33
2023-03-19T20:32:24.377Z,20.73
2023-03-19T20:34:52.971Z,9.27
2023-03-19T20:37:20.191Z,10.57
2023-03-19T20:39:47.441Z,12.20
2023-03-19T20:42:15.690Z,10.03
2023-03-19T20:44:43.290Z,6.67
2023-03-19T20:47:14.885Z,12.40
2023-03-19T20:49:42.247Z,11.43
2023-03-19T20:52:10.962Z,7.97
2023-03-19T20:54:38.364Z,12.83
2023-03-19T20:57:05.654Z,13.67
2023-03-19T20:59:33.264Z,10.00
2023-03-19T21:02:00.636Z,6.90
2023-03-19T21:04:28.029Z,10.87
2023-03-19T21:06:55.725Z,7.30
2023-03-19T21:09:25.615Z,14.50
2023-03-19T21:18:28.543Z,9.70
2023-03-19T21:20:56.976Z,9.70
2023-03-19T21:23:26.852Z,10.70
2023-03-19T21:25:55.554Z,9.73
2023-03-19T21:28:24.827Z,15.30
2023-03-19T21:30:52.483Z,10.10
2023-03-19T21:33:22.217Z,10.23
2023-03-19T21:35:49.540Z,9.77
2023-03-19T21:38:17.137Z,10.93
2023-03-19T21:40:44.529Z,11.77
2023-03-19T21:43:17.040Z,11.10
2023-03-19T21:45:44.402Z,9.90
2023-03-19T21:48:25.021Z,8.93
2023-03-19T21:50:52.600Z,9.60
2023-03-19T21:53:20.318Z,11.50
2023-03-19T21:55:47.780Z,7.20
2023-03-19T21:58:17.650Z,12.73
2023-03-19T22:00:45.173Z,8.17
2023-03-19T22:03:16.942Z,9.53
2023-03-19T22:05:44.229Z,8.87
2023-03-19T22:08:11.852Z,12.63
2023-03-19T22:10:40.319Z,8.33
2023-03-19T22:13:07.607Z,8.47
2023-03-19T22:15:37.440Z,9.73
2023-03-19T22:18:05.672Z,7.63
2023-03-19T22:20:32.929Z,8.17
2023-03-19T22:23:00.139Z,10.50
2023-03-19T22:25:29.746Z,10.13
2023-03-19T22:27:57.013Z,6.97
2023-03-19T22:30:30.997Z,6.80
2023-03-19T22:32:59.960Z,8.33
2023-03-19T22:35:27.275Z,6.47
2023-03-19T22:37:54.797Z,6.27
2023-03-19T22:40:22.052Z,8.60
2023-03-19T22:42:49.449Z,8.70
2023-03-19T22:45:21.269Z,8.27
2023-03-19T22:51:09.037Z,7.77
2023-03-19T22:53:37.619Z,11.83
2023-03-19T22:56:05.334Z,6.80
2023-03-19T22:58:32.664Z,11.37
2023-03-19T23:01:00.582Z,11.00
2023-03-19T23:03:29.088Z,12.30
2023-03-19T23:05:58.146Z,13.60
2023-03-19T23:08:26.933Z,14.33
2023-03-19T23:10:54.552Z,11.27
2023-03-19T23:13:21.792Z,14.10
2023-03-19T23:15:50.340Z,10.10
2023-03-19T23:18:18.824Z,11.03
2023-03-19T23:23:31.167Z,11.20
2023-03-19T23:25:58.491Z,12.17
2023-03-19T23:28:29.204Z,9.57
2023-03-19T23:30:56.524Z,11.10
2023-03-19T23:33:23.818Z,13.80
2023-03-19T23:35:51.124Z,12.23
2023-03-19T23:38:49.361Z,15.40
2023-03-19T23:41:52.489Z,13.57
2023-03-19T23:44:20.191Z,13.57
2023-03-19T23:46:48.384Z,9.87
2023-03-19T23:49:16.863Z,14.63
2023-03-19T23:51:44.199Z,15.03
2023-03-19T23:54:25.393Z,11.53
2023-03-19T23:56:54.376Z,11.63
2023-03-19T23:59:21.708Z,16.17
